sensor_id;sensor_type;location;lat;lon;timestamp;temperature;humidity
831;DHT22;397;50.564;7.272;2022-11-15T00:00:56;11.50;99.90
831;DHT22;397;50.564;7.272;2022-11-15T00:03:26;11.40;99.90
831;DHT22;397;50.564;7.272;2022-11-15T00:05:54;11.40;99.90
831;DHT22;397;50.564;7.272;2022-11-15T00:08:22;11.50;99.90
831;DHT22;397;50.564;7.272;2022-11-15T00:10:56;11.50;99.90
831;DHT22;397;50.564;7.272;2022-11-15T00:13:24;11.60;99.90
831;DHT22;397;50.564;7.272;2022-11-15T00:15:52;11.60;99.90
831;DHT22;397;50.564;7.272;2022-11-15T00:18:20;11.70;99.90
831;DHT22;397;50.564;7.272;2022-11-15T00:20:47;11.70;99.90
831;DHT22;397;50.564;7.272;2022-11-15T00:23:15;11.70;99.90
831;DHT22;397;50.564;7.272;2022-11-15T00:25:42;11.70;99.90
831;DHT22;397;50.564;7.272;2022-11-15T00:28:10;11.70;99.90
831;DHT22;397;50.564;7.272;2022-11-15T00:30:37;11.60;99.90
831;DHT22;397;50.564;7.272;2022-11-15T00:33:06;11.60;99.90
831;DHT22;397;50.564;7.272;2022-11-15T00:35:34;11.50;99.90
831;DHT22;397;50.564;7.272;2022-11-15T00:38:02;11.40;99.90
831;DHT22;397;50.564;7.272;2022-11-15T00:40:30;11.40;99.90
831;DHT22;397;50.564;7.272;2022-11-15T00:42:58;11.30;99.90
831;DHT22;397;50.564;7.272;2022-11-15T00:45:26;11.20;99.90
831;DHT22;397;50.564;7.272;2022-11-15T00:47:53;11.30;99.90
831;DHT22;397;50.564;7.272;2022-11-15T00:50:21;11.30;99.90
831;DHT22;397;50.564;7.272;2022-11-15T00:52:48;11.30;99.90
831;DHT22;397;50.564;7.272;2022-11-15T00:55:16;11.30;99.90
831;DHT22;397;50.564;7.272;2022-11-15T00:57:45;11.30;99.90
831;DHT22;397;50.564;7.272;2022-11-15T01:00:13;11.40;99.90
831;DHT22;397;50.564;7.272;2022-11-15T01:02:41;11.40;99.90
831;DHT22;397;50.564;7.272;2022-11-15T01:05:08;11.40;99.90
831;DHT22;397;50.564;7.272;2022-11-15T01:07:36;11.50;99.90
831;DHT22;397;50.564;7.272;2022-11-15T01:10:04;11.60;99.90
831;DHT22;397;50.564;7.272;2022-11-15T01:12:32;11.60;99.90
831;DHT22;397;50.564;7.272;2022-11-15T01:15:00;11.40;99.90
831;DHT22;397;50.564;7.272;2022-11-15T01:17:28;11.20;99.90
831;DHT22;397;50.564;7.272;2022-11-15T01:19:55;11.00;99.90
831;DHT22;397;50.564;7.272;2022-11-15T01:22:23;10.90;99.90
831;DHT22;397;50.564;7.272;2022-11-15T01:24:51;10.90;99.90
831;DHT22;397;50.564;7.272;2022-11-15T01:27:18;10.80;99.90
831;DHT22;397;50.564;7.272;2022-11-15T01:29:46;10.80;99.90
831;DHT22;397;50.564;7.272;2022-11-15T01:32:13;10.80;99.90
831;DHT22;397;50.564;7.272;2022-11-15T01:34:41;10.70;99.90
831;DHT22;397;50.564;7.272;2022-11-15T01:37:08;10.70;99.90
831;DHT22;397;50.564;7.272;2022-11-15T01:39:36;10.70;99.90
831;DHT22;397;50.564;7.272;2022-11-15T01:42:03;10.70;99.90
831;DHT22;397;50.564;7.272;2022-11-15T01:44:43;10.80;99.90
831;DHT22;397;50.564;7.272;2022-11-15T01:47:15;10.80;99.90
831;DHT22;397;50.564;7.272;2022-11-15T01:49:54;10.80;99.90
831;DHT22;397;50.564;7.272;2022-11-15T01:52:19;10.80;99.90
831;DHT22;397;50.564;7.272;2022-11-15T01:54:50;10.80;99.90
831;DHT22;397;50.564;7.272;2022-11-15T01:57:19;10.90;99.90
831;DHT22;397;50.564;7.272;2022-11-15T01:59:47;11.00;99.90
831;DHT22;397;50.564;7.272;2022-11-15T02:02:15;11.00;99.90
831;DHT22;397;50.564;7.272;2022-11-15T02:04:46;11.10;99.90
831;DHT22;397;50.564;7.272;2022-11-15T02:07:17;11.20;99.90
831;DHT22;397;50.564;7.272;2022-11-15T02:09:46;11.20;99.90
831;DHT22;397;50.564;7.272;2022-11-15T02:12:16;11.20;99.90
831;DHT22;397;50.564;7.272;2022-11-15T02:14:50;11.30;99.90
831;DHT22;397;50.564;7.272;2022-11-15T02:26:04;11.60;99.90
831;DHT22;397;50.564;7.272;2022-11-15T02:31:22;11.60;99.90
831;DHT22;397;50.564;7.272;2022-11-15T02:34:14;11.60;99.90
831;DHT22;397;50.564;7.272;2022-11-15T02:36:54;11.60;99.90
831;DHT22;397;50.564;7.272;2022-11-15T02:39:34;11.60;99.90
831;DHT22;397;50.564;7.272;2022-11-15T02:42:09;11.50;99.90
831;DHT22;397;50.564;7.272;2022-11-15T02:44:43;11.40;99.90
831;DHT22;397;50.564;7.272;2022-11-15T02:47:12;11.40;99.90
831;DHT22;397;50.564;7.272;2022-11-15T02:49:50;11.40;99.90
831;DHT22;397;50.564;7.272;2022-11-15T02:52:17;11.40;99.90
831;DHT22;397;50.564;7.272;2022-11-15T02:54:55;11.50;99.90
831;DHT22;397;50.564;7.272;2022-11-15T02:57:51;11.40;99.90
831;DHT22;397;50.564;7.272;2022-11-15T03:00:19;11.50;99.90
831;DHT22;397;50.564;7.272;2022-11-15T03:03:05;11.50;99.90
831;DHT22;397;50.564;7.272;2022-11-15T03:05:41;11.40;99.90
831;DHT22;397;50.564;7.272;2022-11-15T03:08:30;11.50;99.90
831;DHT22;397;50.564;7.272;2022-11-15T03:11:12;11.50;99.90
831;DHT22;397;50.564;7.272;2022-11-15T03:13:53;11.50;99.90
831;DHT22;397;50.564;7.272;2022-11-15T03:16:25;11.60;99.90
831;DHT22;397;50.564;7.272;2022-11-15T03:18:54;11.70;99.90
831;DHT22;397;50.564;7.272;2022-11-15T03:21:22;11.80;99.90
831;DHT22;397;50.564;7.272;2022-11-15T03:23:52;11.90;99.90
831;DHT22;397;50.564;7.272;2022-11-15T03:26:21;11.80;99.90
831;DHT22;397;50.564;7.272;2022-11-15T03:28:56;11.90;99.90
831;DHT22;397;50.564;7.272;2022-11-15T03:31:26;11.90;99.90
831;DHT22;397;50.564;7.272;2022-11-15T03:34:17;11.90;99.90
831;DHT22;397;50.564;7.272;2022-11-15T03:36:43;11.90;99.90
831;DHT22;397;50.564;7.272;2022-11-15T03:39:12;12.00;99.90
831;DHT22;397;50.564;7.272;2022-11-15T03:47:32;12.10;99.90
831;DHT22;397;50.564;7.272;2022-11-15T03:50:07;12.20;99.90
831;DHT22;397;50.564;7.272;2022-11-15T03:52:34;12.20;99.90
831;DHT22;397;50.564;7.272;2022-11-15T03:55:06;12.20;99.90
831;DHT22;397;50.564;7.272;2022-11-15T03:57:33;12.20;99.90
831;DHT22;397;50.564;7.272;2022-11-15T04:00:00;12.20;99.90
831;DHT22;397;50.564;7.272;2022-11-15T04:02:28;12.20;99.90
831;DHT22;397;50.564;7.272;2022-11-15T04:04:55;12.20;99.90
831;DHT22;397;50.564;7.272;2022-11-15T04:07:23;12.20;99.90
831;DHT22;397;50.564;7.272;2022-11-15T04:09:50;12.20;99.90
831;DHT22;397;50.564;7.272;2022-11-15T04:12:33;12.20;99.90
831;DHT22;397;50.564;7.272;2022-11-15T04:17:49;12.30;99.90
831;DHT22;397;50.564;7.272;2022-11-15T04:20:24;12.30;99.90
831;DHT22;397;50.564;7.272;2022-11-15T04:23:12;12.30;99.90
831;DHT22;397;50.564;7.272;2022-11-15T04:25:55;12.30;99.90
831;DHT22;397;50.564;7.272;2022-11-15T04:28:23;12.30;99.90
831;DHT22;397;50.564;7.272;2022-11-15T04:30:51;12.40;99.90
831;DHT22;397;50.564;7.272;2022-11-15T04:33:18;12.40;99.90
831;DHT22;397;50.564;7.272;2022-11-15T04:35:46;12.40;99.90
831;DHT22;397;50.564;7.272;2022-11-15T04:38:15;12.40;99.90
831;DHT22;397;50.564;7.272;2022-11-15T04:40:43;12.30;99.90
831;DHT22;397;50.564;7.272;2022-11-15T04:43:10;12.30;99.90
831;DHT22;397;50.564;7.272;2022-11-15T04:45:38;12.40;99.90
831;DHT22;397;50.564;7.272;2022-11-15T04:48:05;12.40;99.90
831;DHT22;397;50.564;7.272;2022-11-15T04:50:33;12.40;99.90
831;DHT22;397;50.564;7.272;2022-11-15T04:53:00;12.40;99.90
831;DHT22;397;50.564;7.272;2022-11-15T04:55:28;12.40;99.90
831;DHT22;397;50.564;7.272;2022-11-15T04:58:02;12.40;99.90
831;DHT22;397;50.564;7.272;2022-11-15T05:00:30;12.30;99.90
831;DHT22;397;50.564;7.272;2022-11-15T05:02:58;12.30;99.90
831;DHT22;397;50.564;7.272;2022-11-15T05:05:43;12.30;99.90
831;DHT22;397;50.564;7.272;2022-11-15T05:08:11;12.30;99.90
831;DHT22;397;50.564;7.272;2022-11-15T05:10:38;12.30;99.90
831;DHT22;397;50.564;7.272;2022-11-15T05:13:06;12.20;99.90
831;DHT22;397;50.564;7.272;2022-11-15T05:15:33;12.20;99.90
831;DHT22;397;50.564;7.272;2022-11-15T05:18:01;12.10;99.90
831;DHT22;397;50.564;7.272;2022-11-15T05:20:28;12.10;99.90
831;DHT22;397;50.564;7.272;2022-11-15T05:22:56;12.20;99.90
831;DHT22;397;50.564;7.272;2022-11-15T05:25:23;12.20;99.90
831;DHT22;397;50.564;7.272;2022-11-15T05:27:51;12.20;99.90
831;DHT22;397;50.564;7.272;2022-11-15T05:30:18;12.10;99.90
831;DHT22;397;50.564;7.272;2022-11-15T05:32:46;12.20;99.90
831;DHT22;397;50.564;7.272;2022-11-15T05:35:18;12.20;99.90
831;DHT22;397;50.564;7.272;2022-11-15T05:37:45;12.20;99.90
831;DHT22;397;50.564;7.272;2022-11-15T05:40:12;12.20;99.90
831;DHT22;397;50.564;7.272;2022-11-15T05:42:40;12.10;99.90
831;DHT22;397;50.564;7.272;2022-11-15T05:45:08;12.10;99.90
831;DHT22;397;50.564;7.272;2022-11-15T05:50:35;12.00;99.90
831;DHT22;397;50.564;7.272;2022-11-15T05:53:04;12.00;99.90
831;DHT22;397;50.564;7.272;2022-11-15T05:55:32;12.00;99.90
831;DHT22;397;50.564;7.272;2022-11-15T05:58:00;12.00;99.90
831;DHT22;397;50.564;7.272;2022-11-15T06:00:28;12.00;99.90
831;DHT22;397;50.564;7.272;2022-11-15T06:02:56;12.00;99.90
831;DHT22;397;50.564;7.272;2022-11-15T06:05:23;12.00;99.90
831;DHT22;397;50.564;7.272;2022-11-15T06:07:51;12.00;99.90
831;DHT22;397;50.564;7.272;2022-11-15T06:10:18;12.00;99.90
831;DHT22;397;50.564;7.272;2022-11-15T06:12:46;12.00;99.90
831;DHT22;397;50.564;7.272;2022-11-15T06:15:13;12.00;99.90
831;DHT22;397;50.564;7.272;2022-11-15T06:17:41;12.00;99.90
831;DHT22;397;50.564;7.272;2022-11-15T06:20:09;12.00;99.90
831;DHT22;397;50.564;7.272;2022-11-15T06:22:37;12.00;99.90
831;DHT22;397;50.564;7.272;2022-11-15T06:25:04;11.90;99.90
831;DHT22;397;50.564;7.272;2022-11-15T06:27:32;12.00;99.90
831;DHT22;397;50.564;7.272;2022-11-15T06:29:59;11.90;99.90
831;DHT22;397;50.564;7.272;2022-11-15T06:32:28;11.90;99.90
831;DHT22;397;50.564;7.272;2022-11-15T06:34:57;11.80;99.90
831;DHT22;397;50.564;7.272;2022-11-15T06:37:24;11.90;99.90
831;DHT22;397;50.564;7.272;2022-11-15T06:39:52;11.90;99.90
831;DHT22;397;50.564;7.272;2022-11-15T06:42:19;12.00;99.90
831;DHT22;397;50.564;7.272;2022-11-15T06:44:47;12.00;99.90
831;DHT22;397;50.564;7.272;2022-11-15T06:47:14;12.00;99.90
831;DHT22;397;50.564;7.272;2022-11-15T06:49:42;12.00;99.90
831;DHT22;397;50.564;7.272;2022-11-15T06:52:09;11.90;99.90
831;DHT22;397;50.564;7.272;2022-11-15T06:54:36;11.90;99.90
831;DHT22;397;50.564;7.272;2022-11-15T06:57:05;11.90;99.90
831;DHT22;397;50.564;7.272;2022-11-15T06:59:32;11.90;99.90
831;DHT22;397;50.564;7.272;2022-11-15T07:02:00;11.90;99.90
831;DHT22;397;50.564;7.272;2022-11-15T07:04:27;11.80;99.90
831;DHT22;397;50.564;7.272;2022-11-15T07:07:14;11.80;99.90
831;DHT22;397;50.564;7.272;2022-11-15T07:09:41;11.80;99.90
831;DHT22;397;50.564;7.272;2022-11-15T07:12:09;11.70;99.90
831;DHT22;397;50.564;7.272;2022-11-15T07:14:37;11.70;99.90
831;DHT22;397;50.564;7.272;2022-11-15T07:17:05;11.70;99.90
831;DHT22;397;50.564;7.272;2022-11-15T07:19:32;11.60;99.90
831;DHT22;397;50.564;7.272;2022-11-15T07:22:00;11.60;99.90
831;DHT22;397;50.564;7.272;2022-11-15T07:24:27;11.60;99.90
831;DHT22;397;50.564;7.272;2022-11-15T07:26:55;11.50;99.90
831;DHT22;397;50.564;7.272;2022-11-15T07:29:22;11.50;99.90
831;DHT22;397;50.564;7.272;2022-11-15T07:31:50;11.50;99.90
831;DHT22;397;50.564;7.272;2022-11-15T07:34:18;11.60;99.90
831;DHT22;397;50.564;7.272;2022-11-15T07:36:46;11.60;99.90
831;DHT22;397;50.564;7.272;2022-11-15T07:39:13;11.50;99.90
831;DHT22;397;50.564;7.272;2022-11-15T07:41:41;11.50;99.90
831;DHT22;397;50.564;7.272;2022-11-15T07:44:09;11.60;99.90
831;DHT22;397;50.564;7.272;2022-11-15T07:46:37;11.60;99.90
831;DHT22;397;50.564;7.272;2022-11-15T07:49:04;11.60;99.90
831;DHT22;397;50.564;7.272;2022-11-15T07:51:32;11.70;99.90
831;DHT22;397;50.564;7.272;2022-11-15T07:53:59;11.70;99.90
831;DHT22;397;50.564;7.272;2022-11-15T07:56:27;11.70;99.90
831;DHT22;397;50.564;7.272;2022-11-15T07:58:54;11.70;99.90
831;DHT22;397;50.564;7.272;2022-11-15T08:01:22;11.80;99.90
831;DHT22;397;50.564;7.272;2022-11-15T08:03:49;11.80;99.90
831;DHT22;397;50.564;7.272;2022-11-15T08:06:17;11.90;99.90
831;DHT22;397;50.564;7.272;2022-11-15T08:08:46;11.90;99.90
831;DHT22;397;50.564;7.272;2022-11-15T08:11:14;12.00;99.90
831;DHT22;397;50.564;7.272;2022-11-15T08:13:41;12.00;99.90
831;DHT22;397;50.564;7.272;2022-11-15T08:16:09;12.10;99.90
831;DHT22;397;50.564;7.272;2022-11-15T08:18:38;12.10;99.90
831;DHT22;397;50.564;7.272;2022-11-15T08:21:05;12.20;99.90
831;DHT22;397;50.564;7.272;2022-11-15T08:23:33;12.30;99.90
831;DHT22;397;50.564;7.272;2022-11-15T08:26:04;12.30;99.90
831;DHT22;397;50.564;7.272;2022-11-15T08:28:32;12.30;99.90
831;DHT22;397;50.564;7.272;2022-11-15T08:31:00;12.30;99.90
831;DHT22;397;50.564;7.272;2022-11-15T08:33:28;12.40;99.90
831;DHT22;397;50.564;7.272;2022-11-15T08:36:00;12.40;99.90
831;DHT22;397;50.564;7.272;2022-11-15T08:38:27;12.40;99.90
831;DHT22;397;50.564;7.272;2022-11-15T08:41:03;12.50;99.90
831;DHT22;397;50.564;7.272;2022-11-15T08:43:32;12.50;99.90
831;DHT22;397;50.564;7.272;2022-11-15T08:46:00;12.50;99.90
831;DHT22;397;50.564;7.272;2022-11-15T08:48:27;12.50;99.90
831;DHT22;397;50.564;7.272;2022-11-15T08:50:55;12.50;99.90
831;DHT22;397;50.564;7.272;2022-11-15T08:53:23;12.60;99.90
831;DHT22;397;50.564;7.272;2022-11-15T08:55:51;12.60;99.90
831;DHT22;397;50.564;7.272;2022-11-15T08:58:18;12.60;99.90
831;DHT22;397;50.564;7.272;2022-11-15T09:00:46;12.70;99.90
831;DHT22;397;50.564;7.272;2022-11-15T09:03:13;12.70;99.90
831;DHT22;397;50.564;7.272;2022-11-15T09:05:41;12.70;99.90
831;DHT22;397;50.564;7.272;2022-11-15T09:08:09;12.70;99.90
831;DHT22;397;50.564;7.272;2022-11-15T09:10:37;12.80;99.90
831;DHT22;397;50.564;7.272;2022-11-15T09:13:05;12.80;99.90
831;DHT22;397;50.564;7.272;2022-11-15T09:15:32;12.90;99.90
831;DHT22;397;50.564;7.272;2022-11-15T09:18:00;12.90;99.90
831;DHT22;397;50.564;7.272;2022-11-15T09:20:27;12.90;99.90
831;DHT22;397;50.564;7.272;2022-11-15T09:22:58;13.00;99.90
831;DHT22;397;50.564;7.272;2022-11-15T09:25:24;13.00;99.90
831;DHT22;397;50.564;7.272;2022-11-15T09:27:51;12.90;99.90
831;DHT22;397;50.564;7.272;2022-11-15T09:30:19;13.00;99.90
831;DHT22;397;50.564;7.272;2022-11-15T09:32:46;13.00;99.90
831;DHT22;397;50.564;7.272;2022-11-15T09:35:14;13.00;99.90
831;DHT22;397;50.564;7.272;2022-11-15T09:37:42;13.10;99.90
831;DHT22;397;50.564;7.272;2022-11-15T09:40:14;13.10;99.90
831;DHT22;397;50.564;7.272;2022-11-15T09:42:58;13.10;99.90
831;DHT22;397;50.564;7.272;2022-11-15T09:51:14;13.20;99.90
831;DHT22;397;50.564;7.272;2022-11-15T09:56:25;13.10;99.90
831;DHT22;397;50.564;7.272;2022-11-15T09:59:22;13.10;99.90
831;DHT22;397;50.564;7.272;2022-11-15T10:04:18;13.20;99.90
831;DHT22;397;50.564;7.272;2022-11-15T10:06:52;13.20;99.90
831;DHT22;397;50.564;7.272;2022-11-15T10:09:24;13.20;99.90
831;DHT22;397;50.564;7.272;2022-11-15T10:11:52;13.20;99.90
831;DHT22;397;50.564;7.272;2022-11-15T10:14:25;13.20;99.90
831;DHT22;397;50.564;7.272;2022-11-15T10:22:45;13.20;99.90
831;DHT22;397;50.564;7.272;2022-11-15T10:25:19;13.20;99.90
831;DHT22;397;50.564;7.272;2022-11-15T10:27:56;13.20;99.90
831;DHT22;397;50.564;7.272;2022-11-15T10:30:36;13.30;99.90
831;DHT22;397;50.564;7.272;2022-11-15T10:33:33;13.30;99.90
831;DHT22;397;50.564;7.272;2022-11-15T10:36:16;13.30;99.90
831;DHT22;397;50.564;7.272;2022-11-15T10:38:52;13.30;99.90
831;DHT22;397;50.564;7.272;2022-11-15T10:41:32;13.30;99.90
831;DHT22;397;50.564;7.272;2022-11-15T10:44:20;13.40;99.90
831;DHT22;397;50.564;7.272;2022-11-15T10:47:34;13.40;99.90
831;DHT22;397;50.564;7.272;2022-11-15T10:49:20;13.40;99.90
831;DHT22;397;50.564;7.272;2022-11-15T10:51:51;13.40;99.90
831;DHT22;397;50.564;7.272;2022-11-15T10:56:54;13.40;99.90
831;DHT22;397;50.564;7.272;2022-11-15T10:59:34;13.30;99.90
831;DHT22;397;50.564;7.272;2022-11-15T11:02:20;13.30;99.90
831;DHT22;397;50.564;7.272;2022-11-15T11:04:49;13.30;99.90
831;DHT22;397;50.564;7.272;2022-11-15T11:07:08;13.30;99.90
831;DHT22;397;50.564;7.272;2022-11-15T11:09:34;13.40;99.90
831;DHT22;397;50.564;7.272;2022-11-15T11:12:04;13.40;99.90
831;DHT22;397;50.564;7.272;2022-11-15T11:14:34;13.40;99.90
831;DHT22;397;50.564;7.272;2022-11-15T11:17:17;13.40;99.90
831;DHT22;397;50.564;7.272;2022-11-15T11:22:44;13.50;99.90
831;DHT22;397;50.564;7.272;2022-11-15T11:25:17;13.60;99.90
831;DHT22;397;50.564;7.272;2022-11-15T11:28:04;13.50;99.90
831;DHT22;397;50.564;7.272;2022-11-15T11:30:53;13.60;99.90
831;DHT22;397;50.564;7.272;2022-11-15T11:36:14;13.60;99.90
831;DHT22;397;50.564;7.272;2022-11-15T11:47:00;13.60;99.90
831;DHT22;397;50.564;7.272;2022-11-15T11:52:15;13.60;99.90
831;DHT22;397;50.564;7.272;2022-11-15T11:55:12;13.70;99.90
831;DHT22;397;50.564;7.272;2022-11-15T11:57:49;13.70;99.90
831;DHT22;397;50.564;7.272;2022-11-15T12:00:23;13.70;99.90
831;DHT22;397;50.564;7.272;2022-11-15T12:03:05;13.70;99.90
831;DHT22;397;50.564;7.272;2022-11-15T12:06:00;13.70;99.90
831;DHT22;397;50.564;7.272;2022-11-15T12:11:17;13.70;99.90
831;DHT22;397;50.564;7.272;2022-11-15T12:14:03;13.80;99.90
831;DHT22;397;50.564;7.272;2022-11-15T12:16:32;13.80;99.90
831;DHT22;397;50.564;7.272;2022-11-15T12:19:02;13.80;99.90
831;DHT22;397;50.564;7.272;2022-11-15T12:21:50;13.80;99.90
831;DHT22;397;50.564;7.272;2022-11-15T12:24:39;13.90;99.90
831;DHT22;397;50.564;7.272;2022-11-15T12:27:17;14.00;99.90
831;DHT22;397;50.564;7.272;2022-11-15T12:29:48;14.00;99.90
831;DHT22;397;50.564;7.272;2022-11-15T12:32:27;14.00;99.90
831;DHT22;397;50.564;7.272;2022-11-15T12:35:35;14.00;99.90
831;DHT22;397;50.564;7.272;2022-11-15T12:38:04;14.00;99.90
831;DHT22;397;50.564;7.272;2022-11-15T12:40:37;14.10;99.90
831;DHT22;397;50.564;7.272;2022-11-15T12:45:45;14.10;99.90
831;DHT22;397;50.564;7.272;2022-11-15T12:50:56;14.20;99.90
831;DHT22;397;50.564;7.272;2022-11-15T12:53:27;14.30;99.90
831;DHT22;397;50.564;7.272;2022-11-15T12:58:49;14.40;99.90
831;DHT22;397;50.564;7.272;2022-11-15T13:04:26;14.30;99.90
831;DHT22;397;50.564;7.272;2022-11-15T13:07:04;14.30;99.90
831;DHT22;397;50.564;7.272;2022-11-15T13:14:59;14.30;99.90
831;DHT22;397;50.564;7.272;2022-11-15T13:17:33;14.30;99.90
831;DHT22;397;50.564;7.272;2022-11-15T13:22:42;14.30;99.90
831;DHT22;397;50.564;7.272;2022-11-15T13:25:48;14.50;99.90
831;DHT22;397;50.564;7.272;2022-11-15T13:30:59;14.50;99.90
831;DHT22;397;50.564;7.272;2022-11-15T13:33:35;14.50;99.90
831;DHT22;397;50.564;7.272;2022-11-15T13:36:13;14.50;99.90
831;DHT22;397;50.564;7.272;2022-11-15T13:38:38;14.50;99.90
831;DHT22;397;50.564;7.272;2022-11-15T13:43:47;14.40;99.90
831;DHT22;397;50.564;7.272;2022-11-15T13:46:31;14.40;99.90
831;DHT22;397;50.564;7.272;2022-11-15T13:49:07;14.40;99.90
831;DHT22;397;50.564;7.272;2022-11-15T13:57:00;14.40;99.90
831;DHT22;397;50.564;7.272;2022-11-15T13:59:23;14.50;99.90
831;DHT22;397;50.564;7.272;2022-11-15T14:01:49;14.50;99.90
831;DHT22;397;50.564;7.272;2022-11-15T14:04:19;14.60;99.90
831;DHT22;397;50.564;7.272;2022-11-15T14:06:57;14.50;99.90
831;DHT22;397;50.564;7.272;2022-11-15T14:09:40;14.50;99.90
831;DHT22;397;50.564;7.272;2022-11-15T14:12:31;14.50;99.90
831;DHT22;397;50.564;7.272;2022-11-15T14:15:18;14.40;99.90
831;DHT22;397;50.564;7.272;2022-11-15T14:20:00;14.40;99.90
831;DHT22;397;50.564;7.272;2022-11-15T14:22:29;14.40;99.90
831;DHT22;397;50.564;7.272;2022-11-15T14:25:18;14.40;99.90
831;DHT22;397;50.564;7.272;2022-11-15T14:28:09;14.40;99.90
831;DHT22;397;50.564;7.272;2022-11-15T14:30:33;14.40;99.90
831;DHT22;397;50.564;7.272;2022-11-15T14:33:01;14.30;99.90
831;DHT22;397;50.564;7.272;2022-11-15T14:35:29;14.30;99.90
831;DHT22;397;50.564;7.272;2022-11-15T14:37:58;14.30;99.90
831;DHT22;397;50.564;7.272;2022-11-15T14:40:26;14.30;99.90
831;DHT22;397;50.564;7.272;2022-11-15T14:42:53;14.30;99.90
831;DHT22;397;50.564;7.272;2022-11-15T14:45:21;14.30;99.90
831;DHT22;397;50.564;7.272;2022-11-15T14:47:49;14.30;99.90
831;DHT22;397;50.564;7.272;2022-11-15T14:50:21;14.20;99.90
831;DHT22;397;50.564;7.272;2022-11-15T14:52:49;14.20;99.90
831;DHT22;397;50.564;7.272;2022-11-15T14:55:25;14.20;99.90
831;DHT22;397;50.564;7.272;2022-11-15T14:57:54;14.20;99.90
831;DHT22;397;50.564;7.272;2022-11-15T15:00:22;14.10;99.90
831;DHT22;397;50.564;7.272;2022-11-15T15:02:52;14.10;99.90
831;DHT22;397;50.564;7.272;2022-11-15T15:05:25;14.10;99.90
831;DHT22;397;50.564;7.272;2022-11-15T15:07:52;14.10;99.90
831;DHT22;397;50.564;7.272;2022-11-15T15:10:21;14.10;99.90
831;DHT22;397;50.564;7.272;2022-11-15T15:12:48;14.00;99.90
831;DHT22;397;50.564;7.272;2022-11-15T15:15:22;14.00;99.90
831;DHT22;397;50.564;7.272;2022-11-15T15:17:50;14.00;99.90
831;DHT22;397;50.564;7.272;2022-11-15T15:20:17;14.00;99.90
831;DHT22;397;50.564;7.272;2022-11-15T15:22:45;13.90;99.90
831;DHT22;397;50.564;7.272;2022-11-15T15:25:34;13.90;99.90
831;DHT22;397;50.564;7.272;2022-11-15T15:28:00;13.90;99.90
831;DHT22;397;50.564;7.272;2022-11-15T15:30:29;13.90;99.90
831;DHT22;397;50.564;7.272;2022-11-15T15:32:57;13.90;99.90
831;DHT22;397;50.564;7.272;2022-11-15T15:35:29;13.80;99.90
831;DHT22;397;50.564;7.272;2022-11-15T15:37:56;13.90;99.90
831;DHT22;397;50.564;7.272;2022-11-15T15:40:25;13.80;99.90
831;DHT22;397;50.564;7.272;2022-11-15T15:42:52;13.80;99.90
831;DHT22;397;50.564;7.272;2022-11-15T15:45:20;13.80;99.90
831;DHT22;397;50.564;7.272;2022-11-15T15:47:48;13.80;99.90
831;DHT22;397;50.564;7.272;2022-11-15T15:50:21;13.80;99.90
831;DHT22;397;50.564;7.272;2022-11-15T15:52:50;13.70;99.90
831;DHT22;397;50.564;7.272;2022-11-15T15:55:18;13.70;99.90
831;DHT22;397;50.564;7.272;2022-11-15T15:57:46;13.70;99.90
831;DHT22;397;50.564;7.272;2022-11-15T16:00:15;13.70;99.90
831;DHT22;397;50.564;7.272;2022-11-15T16:02:43;13.70;99.90
831;DHT22;397;50.564;7.272;2022-11-15T16:05:11;13.70;99.90
831;DHT22;397;50.564;7.272;2022-11-15T16:07:39;13.70;99.90
831;DHT22;397;50.564;7.272;2022-11-15T16:10:21;13.70;99.90
831;DHT22;397;50.564;7.272;2022-11-15T16:12:48;13.70;99.90
831;DHT22;397;50.564;7.272;2022-11-15T16:15:16;13.70;99.90
831;DHT22;397;50.564;7.272;2022-11-15T16:17:55;13.70;99.90
831;DHT22;397;50.564;7.272;2022-11-15T16:20:40;13.70;99.90
831;DHT22;397;50.564;7.272;2022-11-15T16:23:16;13.70;99.90
831;DHT22;397;50.564;7.272;2022-11-15T16:28:32;13.70;99.90
831;DHT22;397;50.564;7.272;2022-11-15T16:31:05;13.70;99.90
831;DHT22;397;50.564;7.272;2022-11-15T16:33:32;13.60;99.90
831;DHT22;397;50.564;7.272;2022-11-15T16:36:00;13.60;99.90
831;DHT22;397;50.564;7.272;2022-11-15T16:38:28;13.60;99.90
831;DHT22;397;50.564;7.272;2022-11-15T16:40:55;13.60;99.90
831;DHT22;397;50.564;7.272;2022-11-15T16:43:23;13.60;99.90
831;DHT22;397;50.564;7.272;2022-11-15T16:45:50;13.70;99.90
831;DHT22;397;50.564;7.272;2022-11-15T16:48:26;13.70;99.90
831;DHT22;397;50.564;7.272;2022-11-15T16:50:58;13.70;99.90
831;DHT22;397;50.564;7.272;2022-11-15T16:53:26;13.70;99.90
831;DHT22;397;50.564;7.272;2022-11-15T16:55:57;13.70;99.90
831;DHT22;397;50.564;7.272;2022-11-15T16:58:24;13.70;99.90
831;DHT22;397;50.564;7.272;2022-11-15T17:00:54;13.60;99.90
831;DHT22;397;50.564;7.272;2022-11-15T17:03:22;13.60;99.90
831;DHT22;397;50.564;7.272;2022-11-15T17:05:50;13.60;99.90
831;DHT22;397;50.564;7.272;2022-11-15T17:08:18;13.60;99.90
831;DHT22;397;50.564;7.272;2022-11-15T17:10:48;13.60;99.90
831;DHT22;397;50.564;7.272;2022-11-15T17:13:15;13.60;99.90
831;DHT22;397;50.564;7.272;2022-11-15T17:15:43;13.50;99.90
831;DHT22;397;50.564;7.272;2022-11-15T17:18:11;13.60;99.90
831;DHT22;397;50.564;7.272;2022-11-15T17:20:40;13.60;99.90
831;DHT22;397;50.564;7.272;2022-11-15T17:23:11;13.50;99.90
831;DHT22;397;50.564;7.272;2022-11-15T17:25:40;13.60;99.90
831;DHT22;397;50.564;7.272;2022-11-15T17:28:07;13.50;99.90
831;DHT22;397;50.564;7.272;2022-11-15T17:30:35;13.50;99.90
831;DHT22;397;50.564;7.272;2022-11-15T17:33:02;13.50;99.90
831;DHT22;397;50.564;7.272;2022-11-15T17:35:30;13.50;99.90
831;DHT22;397;50.564;7.272;2022-11-15T17:37:58;13.50;99.90
831;DHT22;397;50.564;7.272;2022-11-15T17:40:25;13.50;99.90
831;DHT22;397;50.564;7.272;2022-11-15T17:42:53;13.40;99.90
831;DHT22;397;50.564;7.272;2022-11-15T17:45:22;13.50;99.90
831;DHT22;397;50.564;7.272;2022-11-15T17:47:49;13.40;99.90
831;DHT22;397;50.564;7.272;2022-11-15T17:50:17;13.50;99.90
831;DHT22;397;50.564;7.272;2022-11-15T17:52:44;13.50;99.90
831;DHT22;397;50.564;7.272;2022-11-15T17:55:12;13.50;99.90
831;DHT22;397;50.564;7.272;2022-11-15T17:57:39;13.40;99.90
831;DHT22;397;50.564;7.272;2022-11-15T18:00:08;13.50;99.90
831;DHT22;397;50.564;7.272;2022-11-15T18:02:35;13.50;99.90
831;DHT22;397;50.564;7.272;2022-11-15T18:05:04;13.40;99.90
831;DHT22;397;50.564;7.272;2022-11-15T18:07:31;13.50;99.90
831;DHT22;397;50.564;7.272;2022-11-15T18:09:59;13.50;99.90
831;DHT22;397;50.564;7.272;2022-11-15T18:12:26;13.50;99.90
831;DHT22;397;50.564;7.272;2022-11-15T18:14:54;13.40;99.90
831;DHT22;397;50.564;7.272;2022-11-15T18:17:21;13.40;99.90
831;DHT22;397;50.564;7.272;2022-11-15T18:19:49;13.40;99.90
831;DHT22;397;50.564;7.272;2022-11-15T18:22:16;13.40;99.90
831;DHT22;397;50.564;7.272;2022-11-15T18:24:45;13.40;99.90
831;DHT22;397;50.564;7.272;2022-11-15T18:27:13;13.40;99.90
831;DHT22;397;50.564;7.272;2022-11-15T18:29:41;13.30;99.90
831;DHT22;397;50.564;7.272;2022-11-15T18:32:10;13.40;99.90
831;DHT22;397;50.564;7.272;2022-11-15T18:34:39;13.30;99.90